createdAt,value
2024-04-02T00:01:26.189Z,99655.20
2024-04-02T00:04:16.513Z,99660.40
2024-04-02T00:06:52.673Z,99666.00
2024-04-02T00:09:29.713Z,99664.60
2024-04-02T00:12:07.013Z,99666.60
2024-04-02T00:14:45.238Z,99667.80
2024-04-02T00:17:22.019Z,99671.20
2024-04-02T00:19:58.406Z,99672.80
2024-04-02T00:22:35.885Z,99678.80
2024-04-02T00:25:13.549Z,99681.20
2024-04-02T00:27:50.205Z,99679.60
2024-04-02T00:30:38.469Z,99678.80
2024-04-02T00:33:16.339Z,99675.20
2024-04-02T00:36:03.400Z,99675.40
2024-04-02T00:38:41.879Z,99688.60
2024-04-02T00:41:19.187Z,99686.60
2024-04-02T00:43:57.006Z,99693.60
2024-04-02T00:46:33.677Z,99692.20
2024-04-02T00:49:10.508Z,99697.20
2024-04-02T00:51:47.734Z,99694.60
2024-04-02T00:54:25.705Z,99694.80
2024-04-02T00:57:03.018Z,99702.60
2024-04-02T00:59:39.838Z,99705.20
2024-04-02T01:02:16.934Z,99703.20
2024-04-02T01:04:53.663Z,99704.80
2024-04-02T01:07:30.645Z,99709.60
2024-04-02T01:10:07.673Z,99718.20
2024-04-02T01:12:44.552Z,99717.20
2024-04-02T01:15:27.682Z,99717.00
2024-04-02T01:18:03.952Z,99725.60
2024-04-02T01:20:40.624Z,99733.20
2024-04-02T01:23:17.149Z,99740.20
2024-04-02T01:25:55.029Z,99738.80
2024-04-02T01:28:32.709Z,99736.80
2024-04-02T01:31:10.796Z,99736.80
2024-04-02T01:33:48.174Z,99735.20
2024-04-02T01:36:25.020Z,99738.20
2024-04-02T01:39:01.980Z,99734.40
2024-04-02T01:41:39.055Z,99745.80
2024-04-02T01:44:15.869Z,99744.20
2024-04-02T01:46:52.237Z,99744.00
2024-04-02T01:49:28.242Z,99741.40
2024-04-02T01:52:06.357Z,99738.00
2024-04-02T01:54:42.597Z,99738.40
2024-04-02T01:57:19.409Z,99739.20
2024-04-02T01:59:56.473Z,99738.80
2024-04-02T02:02:33.185Z,99741.00
2024-04-02T02:05:12.208Z,99736.80
2024-04-02T02:07:48.755Z,99734.80
2024-04-02T02:10:26.131Z,99743.00
2024-04-02T02:13:02.664Z,99744.80
2024-04-02T02:15:40.191Z,99744.20
2024-04-02T02:18:16.728Z,99749.20
2024-04-02T02:20:53.996Z,99751.00
2024-04-02T02:23:30.831Z,99754.00
2024-04-02T02:26:07.785Z,99757.40
2024-04-02T02:28:46.518Z,99752.40
2024-04-02T02:31:22.914Z,99758.60
2024-04-02T02:34:00.475Z,99765.20
2024-04-02T02:36:37.538Z,99770.80
2024-04-02T02:39:14.572Z,99771.40
2024-04-02T02:41:53.876Z,99778.20
2024-04-02T02:44:31.555Z,99785.60
2024-04-02T02:47:08.606Z,99785.40
2024-04-02T02:49:45.860Z,99784.60
2024-04-02T02:52:23.257Z,99789.20
2024-04-02T02:55:00.547Z,99790.40
2024-04-02T02:57:37.315Z,99799.40
2024-04-02T03:00:20.105Z,99799.40
2024-04-02T03:02:57.912Z,99801.00
2024-04-02T03:05:34.240Z,99806.60
2024-04-02T03:08:13.016Z,99809.20
2024-04-02T03:11:02.030Z,99810.20
2024-04-02T03:13:37.974Z,99811.00
2024-04-02T03:16:15.302Z,99822.40
2024-04-02T03:18:51.384Z,99825.00
2024-04-02T03:21:28.744Z,99827.20
2024-04-02T03:24:06.711Z,99827.80
2024-04-02T03:26:43.990Z,99830.00
2024-04-02T03:29:21.076Z,99833.20
2024-04-02T03:31:58.267Z,99833.60
2024-04-02T03:34:39.768Z,99837.40
2024-04-02T03:37:16.900Z,99843.20
2024-04-02T03:39:53.667Z,99852.00
2024-04-02T03:42:31.672Z,99854.80
2024-04-02T03:45:11.406Z,99852.80
2024-04-02T03:47:48.629Z,99854.60
2024-04-02T03:50:27.259Z,99852.60
2024-04-02T03:53:03.649Z,99853.80
2024-04-02T03:55:43.085Z,99851.40
2024-04-02T03:58:19.761Z,99857.80
2024-04-02T04:00:57.379Z,99863.20
2024-04-02T04:03:34.593Z,99862.60
2024-04-02T04:06:13.568Z,99864.20
2024-04-02T04:08:52.129Z,99866.60
2024-04-02T04:11:29.366Z,99867.00
2024-04-02T04:14:06.877Z,99866.40
2024-04-02T04:16:44.325Z,99870.40
2024-04-02T04:19:20.883Z,99869.20
2024-04-02T04:21:58.764Z,99869.80
2024-04-02T04:24:35.067Z,99876.60
2024-04-02T04:27:13.603Z,99875.40
2024-04-02T04:29:52.511Z,99879.40
2024-04-02T04:32:30.328Z,99882.20
2024-04-02T04:35:08.479Z,99881.00
2024-04-02T04:37:45.273Z,99885.00
2024-04-02T04:40:23.610Z,99888.80
2024-04-02T04:43:00.803Z,99892.20
2024-04-02T04:45:38.932Z,99895.60
2024-04-02T04:48:17.958Z,99903.60
2024-04-02T04:51:05.134Z,99908.80
2024-04-02T04:53:42.502Z,99912.20
2024-04-02T04:56:19.166Z,99914.60
2024-04-02T04:58:56.041Z,99925.40
2024-04-02T05:01:32.923Z,99930.80
2024-04-02T05:04:11.250Z,99930.60
2024-04-02T05:06:49.400Z,99933.80
2024-04-02T05:09:26.466Z,99934.20
2024-04-02T05:12:03.200Z,99940.40
2024-04-02T05:14:39.988Z,99941.80
2024-04-02T05:17:18.456Z,99942.20
2024-04-02T05:19:59.657Z,99947.60
2024-04-02T05:22:37.481Z,99949.80
2024-04-02T05:25:15.353Z,99957.80
2024-04-02T05:27:53.731Z,99949.00
2024-04-02T05:30:30.787Z,99946.60
2024-04-02T05:33:07.970Z,99952.80
2024-04-02T05:35:45.133Z,99955.80
2024-04-02T05:38:21.962Z,99962.60
2024-04-02T05:40:58.586Z,99967.20
2024-04-02T05:43:35.307Z,99968.20
2024-04-02T05:46:12.622Z,99967.80
2024-04-02T05:48:50.527Z,99967.40
2024-04-02T05:51:27.944Z,99964.00
2024-04-02T05:54:04.695Z,99970.60
2024-04-02T05:56:41.591Z,99973.40
2024-04-02T05:59:18.377Z,99983.40
2024-04-02T06:01:56.894Z,99984.20
2024-04-02T06:04:33.924Z,99987.80
2024-04-02T06:07:10.906Z,99992.40
2024-04-02T06:09:48.171Z,99995.00
2024-04-02T06:12:25.936Z,99996.80
2024-04-02T06:15:04.279Z,100001.80
2024-04-02T06:17:42.184Z,100011.80
2024-04-02T06:20:20.027Z,100014.00
2024-04-02T06:22:56.464Z,100013.60
2024-04-02T06:25:32.890Z,100018.40
2024-04-02T06:28:10.674Z,100014.20
2024-04-02T06:30:48.243Z,100020.60
2024-04-02T06:33:26.354Z,100020.00
2024-04-02T06:36:02.915Z,100026.00
2024-04-02T06:38:42.037Z,100030.20
2024-04-02T06:41:19.174Z,100036.60
2024-04-02T06:43:56.361Z,100041.40
2024-04-02T06:46:34.900Z,100045.60
2024-04-02T06:49:13.751Z,100049.80
2024-04-02T06:51:52.600Z,100053.60
2024-04-02T06:54:30.003Z,100056.40
2024-04-02T06:57:07.179Z,100060.20
2024-04-02T06:59:44.259Z,100069.40
2024-04-02T07:02:21.587Z,100067.60
2024-04-02T07:04:59.288Z,100070.20
2024-04-02T07:07:36.199Z,100075.80
2024-04-02T07:10:17.458Z,100073.60
2024-04-02T07:12:54.939Z,100075.40
2024-04-02T07:15:36.766Z,100080.20
2024-04-02T07:18:15.621Z,100080.80
2024-04-02T07:21:02.265Z,100077.00
2024-04-02T07:23:39.602Z,100075.60
2024-04-02T07:26:16.602Z,100077.60
2024-04-02T07:28:53.394Z,100078.60
2024-04-02T07:31:30.170Z,100086.00
2024-04-02T07:34:07.396Z,100088.60
2024-04-02T07:36:45.450Z,100091.60
2024-04-02T07:39:22.636Z,100097.60
2024-04-02T07:41:59.515Z,100099.20
2024-04-02T07:44:37.163Z,100110.80
2024-04-02T07:47:15.457Z,100111.60
2024-04-02T07:49:54.758Z,100110.40
2024-04-02T07:52:33.226Z,100111.60
2024-04-02T07:55:12.366Z,100110.40
2024-04-02T07:57:50.321Z,100110.20
2024-04-02T08:00:26.671Z,100111.80
2024-04-02T08:03:04.229Z,100113.80
2024-04-02T08:05:42.457Z,100117.20
2024-04-02T08:08:19.323Z,100117.60
2024-04-02T08:10:57.046Z,100119.20
2024-04-02T08:13:35.708Z,100124.80
2024-04-02T08:16:19.133Z,100124.20
2024-04-02T08:18:57.112Z,100129.00
2024-04-02T08:21:33.836Z,100132.80
2024-04-02T08:24:14.271Z,100134.00
2024-04-02T08:26:52.542Z,100140.80
2024-04-02T08:29:29.281Z,100148.00
2024-04-02T08:32:06.261Z,100147.20
2024-04-02T08:34:43.326Z,100152.40
2024-04-02T08:37:21.334Z,100157.80
2024-04-02T08:39:58.447Z,100160.60
2024-04-02T08:42:42.522Z,100163.00
2024-04-02T08:45:27.238Z,100161.60
2024-04-02T08:48:04.973Z,100164.40
2024-04-02T08:50:44.006Z,100164.00
2024-04-02T08:53:21.331Z,100163.60
2024-04-02T08:56:01.006Z,100166.20
2024-04-02T08:58:39.735Z,100169.60
2024-04-02T09:01:17.819Z,100170.40
2024-04-02T09:03:56.484Z,100174.60
2024-04-02T09:06:33.756Z,100178.00
2024-04-02T09:09:23.140Z,100181.00
2024-04-02T09:12:00.640Z,100178.20
2024-04-02T09:14:40.677Z,100178.20
2024-04-02T09:17:17.442Z,100180.00
2024-04-02T09:19:54.108Z,100178.80
2024-04-02T09:22:32.083Z,100175.00
2024-04-02T09:25:09.949Z,100176.40
2024-04-02T09:27:48.823Z,100177.20
2024-04-02T09:30:27.355Z,100174.80
2024-04-02T09:33:08.653Z,100179.80
2024-04-02T09:36:11.078Z,100183.00
2024-04-02T09:38:50.879Z,100183.20
2024-04-02T09:41:30.984Z,100189.60
2024-04-02T09:44:11.639Z,100189.40
2024-04-02T09:46:53.705Z,100189.20
2024-04-02T09:49:31.872Z,100188.80
2024-04-02T09:52:10.907Z,100188.20
2024-04-02T09:54:49.517Z,100189.00
2024-04-02T09:57:26.884Z,100195.40
2024-04-02T10:00:05.640Z,100192.60
2024-04-02T10:02:49.142Z,100189.40
2024-04-02T10:05:30.174Z,100194.40
2024-04-02T10:08:09.327Z,100196.60
2024-04-02T10:10:50.179Z,100197.00
2024-04-02T10:13:36.599Z,100192.20
2024-04-02T10:16:17.882Z,100196.20
2024-04-02T10:18:58.166Z,100198.40
2024-04-02T10:21:35.391Z,100193.20
2024-04-02T10:24:18.676Z,100193.00
2024-04-02T10:26:59.025Z,100197.20
2024-04-02T10:29:38.987Z,100195.00
2024-04-02T10:32:20.130Z,100197.20
2024-04-02T10:34:58.873Z,100195.80
2024-04-02T10:37:36.876Z,100194.80
2024-04-02T10:40:17.260Z,100197.00
2024-04-02T10:42:56.038Z,100208.00
2024-04-02T10:45:35.677Z,100205.40
2024-04-02T10:48:17.088Z,100207.40
2024-04-02T10:50:55.522Z,100202.60
2024-04-02T10:53:32.605Z,100201.40
2024-04-02T10:56:14.029Z,100196.80
2024-04-02T10:58:50.399Z,100195.80
2024-04-02T11:01:30.658Z,100202.00
2024-04-02T11:04:08.383Z,100202.00
2024-04-02T11:06:47.289Z,100191.80
2024-04-02T11:09:25.219Z,100187.20
2024-04-02T11:12:02.463Z,100186.00
2024-04-02T11:14:39.806Z,100183.80
2024-04-02T11:17:17.026Z,100185.80
2024-04-02T11:19:55.027Z,100183.80
2024-04-02T11:22:55.605Z,100186.20
2024-04-02T11:25:33.265Z,100179.60
2024-04-02T11:28:14.416Z,100184.20
2024-04-02T11:30:52.736Z,100186.80
2024-04-02T11:33:28.953Z,100181.60
2024-04-02T11:36:05.566Z,100181.20
2024-04-02T11:38:42.248Z,100183.60
2024-04-02T11:41:19.076Z,100181.80
2024-04-02T11:43:58.282Z,100175.80
2024-04-02T11:46:36.946Z,100182.40
2024-04-02T11:49:14.698Z,100169.20
2024-04-02T11:51:52.468Z,100185.20
2024-04-02T11:54:31.838Z,100176.80
2024-04-02T11:57:27.800Z,100176.00
2024-04-02T12:00:13.080Z,100180.00
2024-04-02T12:02:51.621Z,100174.80
2024-04-02T12:05:28.513Z,100169.40
2024-04-02T12:08:04.361Z,100167.40
2024-04-02T12:10:41.040Z,100169.20
2024-04-02T12:13:18.715Z,100172.40
2024-04-02T12:15:58.138Z,100167.60
2024-04-02T12:18:36.977Z,100176.60
2024-04-02T12:21:16.134Z,100180.20
2024-04-02T12:23:52.795Z,100178.80
2024-04-02T12:26:29.437Z,100179.80
2024-04-02T12:29:06.413Z,100177.40
2024-04-02T12:31:44.587Z,100174.00
2024-04-02T12:34:23.944Z,100172.40
2024-04-02T12:37:00.705Z,100165.80
2024-04-02T12:39:40.010Z,100161.40
2024-04-02T12:42:21.005Z,100161.20
2024-04-02T12:44:57.973Z,100153.40
2024-04-02T12:47:35.435Z,100157.80
2024-04-02T12:50:16.843Z,100156.40
2024-04-02T12:52:53.940Z,100160.00
2024-04-02T12:55:36.536Z,100157.60
2024-04-02T12:58:22.402Z,100159.40
2024-04-02T13:01:06.440Z,100160.40
2024-04-02T13:03:43.621Z,100157.00
2024-04-02T13:06:20.196Z,100160.40
2024-04-02T13:08:57.091Z,100155.40
2024-04-02T13:11:33.633Z,100159.60
2024-04-02T13:14:10.289Z,100162.00
2024-04-02T13:16:47.225Z,100161.40
2024-04-02T13:19:31.326Z,100157.20
2024-04-02T13:22:14.011Z,100158.60
2024-04-02T13:24:54.996Z,100154.60
2024-04-02T13:27:35.311Z,100150.20
2024-04-02T13:30:19.857Z,100159.00
2024-04-02T13:33:03.414Z,100162.20
2024-04-02T13:35:41.467Z,100161.80
2024-04-02T13:38:19.557Z,100166.80
2024-04-02T13:41:01.032Z,100167.60
2024-04-02T13:43:38.945Z,100167.60
2024-04-02T13:46:16.885Z,100167.60
2024-04-02T13:48:54.355Z,100165.20
2024-04-02T13:51:31.350Z,100162.60
2024-04-02T13:54:08.655Z,100160.00
2024-04-02T13:56:47.893Z,100162.00
2024-04-02T13:59:24.434Z,100168.60
2024-04-02T14:02:01.190Z,100170.00
2024-04-02T14:04:43.456Z,100168.00
2024-04-02T14:07:21.969Z,100174.60
2024-04-02T14:09:57.566Z,100168.40
2024-04-02T14:12:34.996Z,100175.20
2024-04-02T14:15:14.970Z,100171.20
2024-04-02T14:17:52.182Z,100173.20
2024-04-02T14:20:29.686Z,100167.40
2024-04-02T14:23:09.015Z,100170.80
2024-04-02T14:25:53.807Z,100171.60
2024-04-02T14:28:32.631Z,100167.20
2024-04-02T14:31:20.727Z,100167.80
2024-04-02T14:34:03.439Z,100171.80
2024-04-02T14:36:40.660Z,100172.00
2024-04-02T14:39:23.859Z,100172.40
2024-04-02T14:42:01.136Z,100172.00
2024-04-02T14:44:36.525Z,100169.20
2024-04-02T14:47:14.352Z,100169.40
2024-04-02T14:49:53.841Z,100166.60
2024-04-02T14:52:31.064Z,100165.60
2024-04-02T14:55:09.269Z,100168.00
2024-04-02T14:57:49.175Z,100169.00
2024-04-02T15:00:29.278Z,100165.40
2024-04-02T15:03:07.191Z,100158.20
2024-04-02T15:05:44.206Z,100159.00
2024-04-02T15:08:21.502Z,100157.20
2024-04-02T15:11:01.329Z,100155.80
2024-04-02T15:13:39.059Z,100156.20
2024-04-02T15:16:19.963Z,100157.40
2024-04-02T15:18:56.924Z,100160.60
2024-04-02T15:21:34.095Z,100158.40
2024-04-02T15:24:12.320Z,100163.20
2024-04-02T15:26:50.122Z,100156.60
2024-04-02T15:29:26.923Z,100160.00
2024-04-02T15:32:03.394Z,100155.60
2024-04-02T15:34:41.030Z,100153.40
2024-04-02T15:37:18.955Z,100149.20
2024-04-02T15:40:01.909Z,100147.80
2024-04-02T15:42:39.063Z,100144.60
2024-04-02T15:45:53.550Z,100150.40
2024-04-02T15:48:29.977Z,100150.60
2024-04-02T15:51:11.180Z,100154.60
2024-04-02T15:53:53.162Z,100154.60
2024-04-02T15:56:32.828Z,100150.40
2024-04-02T15:59:10.269Z,100157.40
2024-04-02T16:01:47.373Z,100160.40
2024-04-02T16:04:24.499Z,100156.20
2024-04-02T16:07:01.399Z,100158.60
2024-04-02T16:09:41.446Z,100157.80
2024-04-02T16:12:21.365Z,100157.00
2024-04-02T16:14:58.115Z,100160.60
2024-04-02T16:17:38.244Z,100159.80
2024-04-02T16:20:18.030Z,100162.40
2024-04-02T16:22:55.348Z,100160.20
2024-04-02T16:25:33.253Z,100161.60
2024-04-02T16:28:10.997Z,100158.80
2024-04-02T16:30:48.875Z,100157.80
2024-04-02T16:33:26.339Z,100155.60
2024-04-02T16:36:11.015Z,100154.00
2024-04-02T16:38:48.343Z,100161.80
2024-04-02T16:41:25.533Z,100161.20
2024-04-02T16:44:05.435Z,100164.40
2024-04-02T16:46:43.434Z,100166.20
2024-04-02T16:49:22.038Z,100164.00
2024-04-02T16:51:58.948Z,100172.40
2024-04-02T16:54:36.163Z,100170.60
2024-04-02T16:57:14.213Z,100173.20
2024-04-02T16:59:52.050Z,100175.40
2024-04-02T17:02:29.595Z,100177.60
2024-04-02T17:05:06.863Z,100179.80
2024-04-02T17:07:43.639Z,100176.20
2024-04-02T17:10:19.596Z,100175.60
2024-04-02T17:12:55.550Z,100176.80
2024-04-02T17:15:32.568Z,100181.60
2024-04-02T17:18:10.897Z,100186.60
2024-04-02T17:20:47.377Z,100188.60
2024-04-02T17:23:25.029Z,100187.20
2024-04-02T17:26:04.656Z,100187.80
2024-04-02T17:28:41.751Z,100188.60
2024-04-02T17:31:18.594Z,100191.20
2024-04-02T17:33:55.530Z,100196.20
2024-04-02T17:36:33.506Z,100194.40
2024-04-02T17:39:11.576Z,100198.00
2024-04-02T17:41:48.715Z,100199.80
2024-04-02T17:44:26.375Z,100203.40
2024-04-02T17:47:05.978Z,100205.80
2024-04-02T17:49:42.021Z,100207.60
2024-04-02T17:52:18.676Z,100211.80
2024-04-02T17:54:59.533Z,100211.80
2024-04-02T17:57:36.313Z,100214.80
2024-04-02T18:00:19.297Z,100216.80
2024-04-02T18:02:56.733Z,100212.60
2024-04-02T18:05:33.715Z,100220.00
2024-04-02T18:08:11.323Z,100223.40
2024-04-02T18:10:50.171Z,100225.40
2024-04-02T18:13:29.246Z,100230.40
2024-04-02T18:16:06.681Z,100235.20
2024-04-02T18:18:43.706Z,100235.00
2024-04-02T18:21:19.671Z,100240.40
2024-04-02T18:23:56.749Z,100248.20
2024-04-02T18:26:33.981Z,100251.00
2024-04-02T18:29:12.759Z,100255.60
2024-04-02T18:31:48.986Z,100265.40
2024-04-02T18:34:27.600Z,100266.60
2024-04-02T18:37:05.569Z,100276.40
2024-04-02T18:39:42.438Z,100281.40
2024-04-02T18:42:19.369Z,100283.00
2024-04-02T18:44:59.033Z,100290.40
2024-04-02T18:47:38.412Z,100295.40
2024-04-02T18:50:17.949Z,100295.40
2024-04-02T18:52:54.863Z,100293.00
2024-04-02T18:55:31.712Z,100292.80
2024-04-02T18:58:09.546Z,100299.20
2024-04-02T19:00:47.077Z,100302.20
2024-04-02T19:03:24.054Z,100308.40
2024-04-02T19:06:11.230Z,100310.00
2024-04-02T19:08:48.988Z,100311.40
2024-04-02T19:11:26.984Z,100316.20
2024-04-02T19:14:03.710Z,100322.20
2024-04-02T19:16:40.444Z,100329.80
2024-04-02T19:19:17.087Z,100332.40
2024-04-02T19:21:56.291Z,100335.00
2024-04-02T19:24:32.670Z,100339.00
2024-04-02T19:27:11.138Z,100340.00
2024-04-02T19:29:50.130Z,100341.20
2024-04-02T19:32:28.559Z,100339.00
2024-04-02T19:35:04.928Z,100335.20
2024-04-02T19:37:40.491Z,100336.00
2024-04-02T19:40:21.658Z,100336.00
2024-04-02T19:42:59.917Z,100336.00
2024-04-02T19:45:37.202Z,100342.80
2024-04-02T19:48:15.295Z,100347.40
2024-04-02T19:50:59.958Z,100354.60
2024-04-02T19:53:40.149Z,100357.40
2024-04-02T19:56:20.708Z,100356.60
2024-04-02T19:58:58.915Z,100361.80
2024-04-02T20:01:37.482Z,100364.00
2024-04-02T20:04:14.198Z,100366.20
2024-04-02T20:06:51.876Z,100364.00
2024-04-02T20:09:29.663Z,100371.00
2024-04-02T20:12:08.645Z,100373.40
2024-04-02T20:14:45.898Z,100377.80
2024-04-02T20:17:22.854Z,100374.40
2024-04-02T20:19:59.578Z,100374.60
2024-04-02T20:22:36.666Z,100381.60
2024-04-02T20:25:13.799Z,100383.60
2024-04-02T20:27:50.635Z,100383.20
2024-04-02T20:30:27.952Z,100384.00
2024-04-02T20:33:04.646Z,100381.40
2024-04-02T20:35:42.472Z,100375.80
2024-04-02T20:38:20.223Z,100376.80
2024-04-02T20:40:57.222Z,100378.60
2024-04-02T20:43:35.722Z,100375.40
2024-04-02T20:46:14.119Z,100373.40
2024-04-02T20:48:50.784Z,100376.00
2024-04-02T20:51:27.278Z,100381.40
2024-04-02T20:54:03.477Z,100389.00
2024-04-02T20:56:40.231Z,100388.80
2024-04-02T20:59:17.175Z,100386.40
2024-04-02T21:01:55.361Z,100393.40
2024-04-02T21:04:33.569Z,100396.60
2024-04-02T21:07:11.610Z,100392.00
2024-04-02T21:09:48.325Z,100392.80
2024-04-02T21:12:24.829Z,100387.20
2024-04-02T21:15:01.121Z,100394.20
2024-04-02T21:17:38.576Z,100392.20
2024-04-02T21:20:18.523Z,100395.80
2024-04-02T21:22:54.940Z,100391.80
2024-04-02T21:25:32.618Z,100398.60
2024-04-02T21:28:10.052Z,100405.00
2024-04-02T21:30:47.955Z,100407.40
2024-04-02T21:33:25.963Z,100407.80
2024-04-02T21:36:04.504Z,100410.60
2024-04-02T21:38:41.664Z,100410.00
2024-04-02T21:41:19.019Z,100415.20
2024-04-02T21:43:55.853Z,100414.80
2024-04-02T21:46:33.408Z,100411.60
2024-04-02T21:49:10.781Z,100415.60
2024-04-02T21:51:48.390Z,100425.60
2024-04-02T21:54:25.643Z,100423.40
2024-04-02T21:57:03.463Z,100427.80
2024-04-02T21:59:40.372Z,100428.40
2024-04-02T22:02:17.445Z,100424.20
2024-04-02T22:04:54.768Z,100424.60
2024-04-02T22:07:32.271Z,100429.80
2024-04-02T22:10:12.012Z,100429.40
2024-04-02T22:12:51.796Z,100431.80
2024-04-02T22:15:27.685Z,100430.00
2024-04-02T22:18:05.084Z,100426.00
2024-04-02T22:20:42.016Z,100427.00
2024-04-02T22:23:20.345Z,100419.60
2024-04-02T22:26:04.188Z,100422.60
2024-04-02T22:28:42.037Z,100429.20
2024-04-02T22:31:19.730Z,100431.20
2024-04-02T22:33:56.554Z,100435.80
2024-04-02T22:36:32.858Z,100434.80
2024-04-02T22:39:09.519Z,100438.20
2024-04-02T22:41:47.334Z,100433.00
2024-04-02T22:44:27.143Z,100433.80
2024-04-02T22:47:04.446Z,100428.60
2024-04-02T22:49:41.317Z,100428.60
2024-04-02T22:52:19.080Z,100425.20
2024-04-02T22:54:58.765Z,100424.60
2024-04-02T22:57:36.097Z,100425.00
2024-04-02T23:00:18.024Z,100418.80
2024-04-02T23:02:54.994Z,100421.20
2024-04-02T23:05:31.470Z,100419.80
2024-04-02T23:08:11.726Z,100421.00
2024-04-02T23:10:48.969Z,100415.00
2024-04-02T23:13:28.928Z,100417.20
2024-04-02T23:16:05.970Z,100413.00
2024-04-02T23:18:42.639Z,100413.80
2024-04-02T23:21:18.663Z,100409.00
2024-04-02T23:23:54.668Z,100406.20
2024-04-02T23:26:31.671Z,100403.20
2024-04-02T23:29:08.866Z,100407.60
2024-04-02T23:31:46.296Z,100404.80
2024-04-02T23:34:23.739Z,100401.80
2024-04-02T23:37:02.151Z,100408.00
2024-04-02T23:39:38.731Z,100411.40
2024-04-02T23:42:16.655Z,100417.80
2024-04-02T23:44:53.470Z,100425.40
2024-04-02T23:47:31.952Z,100432.20
2024-04-02T23:50:10.211Z,100439.80
2024-04-02T23:52:48.083Z,100444.40
2024-04-02T23:55:25.388Z,100454.20
2024-04-02T23:58:04.081Z,100453.60
